createdAt,value
2022-12-14T00:01:45.139Z,34.40
2022-12-14T00:04:17.462Z,37.00
2022-12-14T00:06:44.397Z,34.15
2022-12-14T00:09:11.482Z,36.28
2022-12-14T00:11:38.391Z,33.75
2022-12-14T00:14:06.204Z,39.72
2022-12-14T00:16:35.174Z,34.17
2022-12-14T00:19:02.954Z,33.65
2022-12-14T00:21:29.862Z,38.72
2022-12-14T00:23:59.503Z,33.10
2022-12-14T00:26:31.043Z,36.95
2022-12-14T00:29:00.584Z,37.45
2022-12-14T00:31:28.124Z,32.40
2022-12-14T00:33:55.523Z,39.47
2022-12-14T00:36:22.928Z,35.30
2022-12-14T00:38:49.815Z,38.15
2022-12-14T00:41:16.712Z,37.60
2022-12-14T00:43:44.242Z,39.00
2022-12-14T00:46:11.427Z,40.20
2022-12-14T00:48:38.564Z,39.63
2022-12-14T00:51:06.040Z,33.15
2022-12-14T00:53:32.968Z,45.38
2022-12-14T00:56:08.750Z,38.80
2022-12-14T00:58:36.047Z,39.78
2022-12-14T01:01:12.343Z,35.33
2022-12-14T01:03:39.571Z,39.35
2022-12-14T01:06:06.811Z,36.05
2022-12-14T01:08:36.637Z,36.17
2022-12-14T01:11:08.609Z,39.15
2022-12-14T01:13:37.542Z,36.97
2022-12-14T01:16:11.636Z,35.03
2022-12-14T01:18:40.350Z,33.28
2022-12-14T01:21:19.490Z,33.92
2022-12-14T01:23:48.650Z,33.35
2022-12-14T01:26:17.387Z,35.40
2022-12-14T01:28:46.234Z,36.72
2022-12-14T01:31:17.259Z,36.42
2022-12-14T01:33:45.161Z,33.13
2022-12-14T01:36:19.072Z,35.35
2022-12-14T01:38:47.602Z,34.30
2022-12-14T01:41:29.962Z,31.65
2022-12-14T01:44:02.033Z,31.33
2022-12-14T01:46:34.150Z,35.33
2022-12-14T01:49:13.464Z,34.92
2022-12-14T01:51:48.754Z,34.35
2022-12-14T01:54:16.702Z,33.95
2022-12-14T01:56:45.804Z,35.53
2022-12-14T01:59:23.603Z,35.42
2022-12-14T02:01:52.290Z,35.97
2022-12-14T02:04:20.127Z,30.48
2022-12-14T02:06:49.370Z,36.13
2022-12-14T02:09:21.951Z,31.73
2022-12-14T02:11:58.682Z,32.05
2022-12-14T02:14:26.703Z,33.22
2022-12-14T02:16:56.106Z,33.45
2022-12-14T02:19:23.649Z,33.80
2022-12-14T02:22:34.536Z,36.78
2022-12-14T02:25:31.693Z,34.13
2022-12-14T02:28:53.173Z,34.47
2022-12-14T02:31:45.026Z,32.83
2022-12-14T02:34:45.520Z,33.22
2022-12-14T02:37:39.129Z,32.25
2022-12-14T02:40:34.369Z,31.35
2022-12-14T02:43:30.755Z,32.97
2022-12-14T02:46:45.068Z,37.10
2022-12-14T02:49:32.846Z,29.55
2022-12-14T02:52:29.430Z,34.20
2022-12-14T02:55:17.790Z,33.40
2022-12-14T02:58:01.418Z,37.38
2022-12-14T03:00:33.803Z,32.80
2022-12-14T03:03:01.778Z,30.75
2022-12-14T03:05:29.622Z,33.28
2022-12-14T03:08:14.548Z,34.35
2022-12-14T03:10:51.643Z,30.10
2022-12-14T03:13:37.439Z,32.22
2022-12-14T03:16:22.931Z,32.60
2022-12-14T03:19:42.700Z,29.83
2022-12-14T03:22:30.253Z,34.65
2022-12-14T03:25:27.051Z,27.13
2022-12-14T03:28:12.243Z,29.60
2022-12-14T03:31:00.319Z,34.88
2022-12-14T03:33:30.731Z,31.25
2022-12-14T03:36:16.463Z,32.33
2022-12-14T03:38:48.139Z,32.45
2022-12-14T03:41:54.866Z,32.30
2022-12-14T03:44:48.769Z,30.08
2022-12-14T03:47:33.518Z,29.75
2022-12-14T03:50:06.883Z,30.25
2022-12-14T03:52:50.198Z,31.23
2022-12-14T03:55:40.910Z,34.55
2022-12-14T03:58:27.783Z,30.70
2022-12-14T04:01:21.584Z,33.13
2022-12-14T04:04:04.043Z,33.53
2022-12-14T04:06:45.679Z,32.00
2022-12-14T04:09:52.313Z,30.05
2022-12-14T04:12:56.840Z,32.05
2022-12-14T04:15:48.981Z,32.67
2022-12-14T04:18:59.262Z,29.80
2022-12-14T04:21:36.685Z,33.75
2022-12-14T04:24:43.541Z,28.35
2022-12-14T04:27:36.607Z,30.95
2022-12-14T04:30:06.261Z,29.25
2022-12-14T04:33:26.541Z,30.13
2022-12-14T04:35:57.376Z,29.55
2022-12-14T04:38:35.212Z,31.23
2022-12-14T04:41:09.363Z,32.13
2022-12-14T04:43:41.827Z,30.17
2022-12-14T04:46:13.900Z,28.15
2022-12-14T04:48:48.233Z,31.60
2022-12-14T04:52:04.824Z,30.13
2022-12-14T04:54:53.587Z,33.33
2022-12-14T04:58:18.510Z,31.38
2022-12-14T05:01:22.648Z,27.70
2022-12-14T05:04:08.166Z,31.23
2022-12-14T05:06:44.846Z,28.23
2022-12-14T05:09:44.086Z,27.88
2022-12-14T05:12:22.930Z,30.60
2022-12-14T05:14:59.881Z,32.55
2022-12-14T05:17:27.937Z,26.13
2022-12-14T05:19:54.897Z,28.15
2022-12-14T05:22:22.227Z,27.15
2022-12-14T05:24:49.139Z,31.77
2022-12-14T05:27:16.520Z,26.17
2022-12-14T05:29:43.555Z,30.40
2022-12-14T05:32:13.508Z,29.13
2022-12-14T05:34:40.706Z,29.92
2022-12-14T05:37:09.571Z,29.67
2022-12-14T05:39:40.174Z,32.92
2022-12-14T05:42:07.274Z,32.88
2022-12-14T05:44:34.263Z,28.80
2022-12-14T05:47:01.305Z,29.98
2022-12-14T05:49:28.200Z,27.58
2022-12-14T05:51:55.409Z,29.08
2022-12-14T05:54:22.322Z,28.55
2022-12-14T05:56:49.499Z,30.02
2022-12-14T05:59:17.557Z,29.75
2022-12-14T06:01:45.637Z,29.55
2022-12-14T06:04:18.836Z,27.98
2022-12-14T06:06:46.121Z,30.58
2022-12-14T06:09:16.001Z,25.98
2022-12-14T06:11:44.583Z,28.98
2022-12-14T06:14:13.371Z,31.90
2022-12-14T06:16:43.274Z,31.40
2022-12-14T06:19:11.543Z,31.40
2022-12-14T06:21:40.820Z,32.30
2022-12-14T06:24:09.851Z,30.77
2022-12-14T06:26:37.398Z,28.90
2022-12-14T06:29:04.843Z,26.63
2022-12-14T06:31:33.132Z,29.92
2022-12-14T06:34:03.046Z,30.42
2022-12-14T06:36:33.195Z,28.67
2022-12-14T06:39:04.742Z,30.83
2022-12-14T06:41:32.073Z,29.88
2022-12-14T06:44:08.221Z,30.83
2022-12-14T06:46:36.538Z,28.17
2022-12-14T06:49:05.832Z,27.30
2022-12-14T06:51:37.779Z,30.48
2022-12-14T06:54:04.795Z,33.35
2022-12-14T06:56:32.134Z,29.40
2022-12-14T06:58:59.466Z,29.70
2022-12-14T07:01:26.770Z,35.05
2022-12-14T07:03:56.528Z,32.25
2022-12-14T07:06:26.001Z,29.50
2022-12-14T07:08:55.872Z,30.85
2022-12-14T07:11:23.569Z,31.13
2022-12-14T07:13:50.586Z,29.73
2022-12-14T07:16:23.873Z,30.88
2022-12-14T07:18:52.301Z,26.88
2022-12-14T07:21:20.904Z,31.48
2022-12-14T07:23:49.196Z,30.08
2022-12-14T07:26:26.443Z,33.70
2022-12-14T07:28:55.106Z,30.25
2022-12-14T07:31:28.555Z,29.90
2022-12-14T07:33:58.301Z,26.90
2022-12-14T07:36:28.012Z,30.50
2022-12-14T07:38:56.099Z,38.63
2022-12-14T07:41:30.685Z,33.33
2022-12-14T07:44:00.655Z,29.53
2022-12-14T07:46:29.626Z,31.38
2022-12-14T07:48:59.054Z,32.60
2022-12-14T07:51:29.669Z,28.20
2022-12-14T07:53:57.254Z,30.25
2022-12-14T07:56:38.019Z,31.75
2022-12-14T07:59:08.588Z,31.77
2022-12-14T08:01:37.501Z,32.88
2022-12-14T08:04:11.892Z,37.85
2022-12-14T08:06:40.607Z,31.85
2022-12-14T08:09:10.563Z,32.63
2022-12-14T08:11:39.139Z,31.60
2022-12-14T08:14:18.753Z,32.45
2022-12-14T08:16:47.316Z,30.65
2022-12-14T08:19:15.011Z,28.60
2022-12-14T08:21:42.253Z,36.08
2022-12-14T08:24:12.215Z,30.65
2022-12-14T08:26:39.566Z,29.20
2022-12-14T08:29:06.753Z,35.05
2022-12-14T08:31:34.422Z,32.92
2022-12-14T08:34:02.185Z,34.50
2022-12-14T08:36:34.419Z,34.10
2022-12-14T08:39:07.912Z,31.35
2022-12-14T08:41:35.548Z,32.13
2022-12-14T08:44:04.642Z,32.35
2022-12-14T08:46:34.334Z,32.47
2022-12-14T08:49:01.562Z,29.95
2022-12-14T08:51:29.561Z,28.73
2022-12-14T08:53:57.341Z,30.67
2022-12-14T08:56:27.271Z,29.25
2022-12-14T08:58:54.636Z,28.85
2022-12-14T09:01:33.408Z,38.63
2022-12-14T09:04:08.268Z,27.70
2022-12-14T09:06:38.942Z,25.90
2022-12-14T09:09:13.608Z,25.70
2022-12-14T09:11:42.882Z,26.80
2022-12-14T09:14:10.912Z,25.33
2022-12-14T09:16:38.100Z,23.52
2022-12-14T09:19:05.387Z,26.17
2022-12-14T09:21:32.488Z,27.25
2022-12-14T09:24:00.166Z,25.95
2022-12-14T09:26:28.003Z,24.70
2022-12-14T09:28:58.100Z,21.95
2022-12-14T09:31:27.759Z,25.65
2022-12-14T09:33:55.358Z,23.90
2022-12-14T09:36:27.540Z,26.05
2022-12-14T09:38:56.528Z,24.98
2022-12-14T09:41:35.569Z,22.10
2022-12-14T09:44:18.857Z,21.40
2022-12-14T09:47:10.812Z,21.45
2022-12-14T09:49:44.929Z,22.85
2022-12-14T09:52:40.255Z,18.55
2022-12-14T09:55:34.957Z,21.13
2022-12-14T09:58:09.956Z,21.15
2022-12-14T10:00:52.909Z,22.83
2022-12-14T10:04:10.835Z,24.17
2022-12-14T10:07:11.657Z,20.13
2022-12-14T10:10:02.248Z,20.05
2022-12-14T10:13:20.774Z,21.65
2022-12-14T10:16:15.286Z,17.95
2022-12-14T10:19:07.252Z,21.35
2022-12-14T10:21:47.398Z,20.55
2022-12-14T10:24:22.479Z,23.75
2022-12-14T10:26:55.201Z,20.92
2022-12-14T10:29:37.261Z,20.85
2022-12-14T10:32:19.476Z,20.27
2022-12-14T10:34:46.671Z,18.52
2022-12-14T10:37:35.129Z,20.42
2022-12-14T10:40:33.156Z,21.63
2022-12-14T10:43:25.963Z,21.98
2022-12-14T10:46:10.133Z,20.80
2022-12-14T10:48:57.166Z,21.00
2022-12-14T10:51:47.887Z,21.85
2022-12-14T10:54:39.306Z,23.88
2022-12-14T10:57:06.457Z,22.73
2022-12-14T10:59:44.700Z,19.88
2022-12-14T11:02:23.135Z,18.88
2022-12-14T11:05:03.840Z,18.98
2022-12-14T11:07:33.841Z,18.08
2022-12-14T11:10:19.228Z,19.85
2022-12-14T11:13:05.490Z,22.45
2022-12-14T11:15:43.248Z,18.25
2022-12-14T11:18:16.557Z,20.30
2022-12-14T11:20:55.547Z,18.48
2022-12-14T11:23:27.672Z,20.45
2022-12-14T11:25:59.234Z,19.02
2022-12-14T11:28:49.960Z,18.92
2022-12-14T11:31:39.009Z,17.13
2022-12-14T11:34:22.131Z,18.60
2022-12-14T11:36:50.171Z,18.38
2022-12-14T11:39:24.666Z,18.25
2022-12-14T11:42:04.501Z,17.13
2022-12-14T11:44:37.661Z,16.70
2022-12-14T11:47:15.827Z,16.25
2022-12-14T11:49:45.915Z,19.48
2022-12-14T11:52:25.396Z,16.90
2022-12-14T11:54:52.377Z,17.10
2022-12-14T11:57:34.532Z,19.90
2022-12-14T12:00:06.948Z,15.23
2022-12-14T12:02:38.289Z,14.90
2022-12-14T12:05:14.758Z,16.98
2022-12-14T12:13:38.694Z,15.13
2022-12-14T12:16:22.867Z,19.85
2022-12-14T12:19:15.654Z,14.50
2022-12-14T12:21:45.191Z,18.40
2022-12-14T12:25:24.245Z,17.33
2022-12-14T12:27:45.216Z,17.27
2022-12-14T12:30:28.634Z,18.75
2022-12-14T12:33:05.469Z,20.13
2022-12-14T12:35:49.556Z,16.88
2022-12-14T12:38:55.202Z,17.90
2022-12-14T12:42:05.196Z,23.98
2022-12-14T12:44:49.548Z,19.45
2022-12-14T12:47:41.553Z,17.17
2022-12-14T12:50:37.047Z,14.63
2022-12-14T12:53:15.065Z,18.27
2022-12-14T12:55:50.174Z,20.15
2022-12-14T12:58:29.297Z,15.55
2022-12-14T13:01:02.073Z,16.73
2022-12-14T13:03:40.184Z,20.00
2022-12-14T13:06:31.428Z,18.10
2022-12-14T13:09:17.819Z,18.00
2022-12-14T13:11:46.039Z,19.90
2022-12-14T13:14:36.076Z,18.95
2022-12-14T13:17:06.709Z,20.27
2022-12-14T13:19:52.080Z,16.73
2022-12-14T13:22:31.274Z,17.75
2022-12-14T13:25:06.486Z,17.02
2022-12-14T13:27:58.372Z,19.25
2022-12-14T13:30:42.707Z,19.17
2022-12-14T13:33:53.710Z,19.02
2022-12-14T13:36:55.231Z,18.85
2022-12-14T13:39:50.575Z,20.52
2022-12-14T13:42:51.914Z,21.48
2022-12-14T13:45:27.470Z,21.92
2022-12-14T13:47:57.157Z,27.23
2022-12-14T13:50:51.245Z,23.25
2022-12-14T13:53:37.271Z,23.50
2022-12-14T13:56:05.186Z,22.83
2022-12-14T13:58:44.940Z,27.60
2022-12-14T14:01:48.406Z,25.98
2022-12-14T14:04:25.808Z,27.30
2022-12-14T14:06:56.635Z,24.45
2022-12-14T14:09:26.571Z,27.00
2022-12-14T14:12:24.192Z,24.63
2022-12-14T14:15:08.233Z,44.00
2022-12-14T14:17:41.576Z,35.75
2022-12-14T14:20:47.397Z,30.50
2022-12-14T14:23:14.291Z,28.38
2022-12-14T14:25:49.847Z,28.08
2022-12-14T14:28:22.980Z,26.50
2022-12-14T14:30:52.484Z,29.42
2022-12-14T14:33:46.521Z,31.08
2022-12-14T14:36:30.871Z,29.30
2022-12-14T14:39:01.604Z,25.63
2022-12-14T14:41:40.693Z,31.27
2022-12-14T14:45:00.012Z,32.75
2022-12-14T14:47:39.529Z,30.58
2022-12-14T14:50:24.670Z,32.30
2022-12-14T14:53:32.851Z,30.60
2022-12-14T14:56:29.252Z,30.98
2022-12-14T14:59:18.093Z,35.20
2022-12-14T15:01:58.125Z,35.10
2022-12-14T15:04:51.627Z,32.55
2022-12-14T15:07:27.746Z,34.63
2022-12-14T15:10:20.720Z,33.40
2022-12-14T15:13:01.939Z,38.90
2022-12-14T15:15:40.394Z,35.35
2022-12-14T15:18:31.557Z,37.60
2022-12-14T15:21:16.132Z,35.38
2022-12-14T15:23:50.528Z,41.38
2022-12-14T15:26:27.372Z,53.47
2022-12-14T15:29:00.551Z,50.10
2022-12-14T15:31:40.366Z,51.30
2022-12-14T15:34:15.417Z,61.78
2022-12-14T15:36:43.154Z,67.07
2022-12-14T15:39:40.008Z,55.63
2022-12-14T15:44:43.699Z,50.58
2022-12-14T15:47:27.855Z,48.78
2022-12-14T15:50:00.464Z,41.95
2022-12-14T15:52:31.158Z,42.00
2022-12-14T15:54:59.485Z,45.88
2022-12-14T15:57:26.740Z,45.88
2022-12-14T15:59:57.427Z,49.47
2022-12-14T16:02:38.198Z,47.00
2022-12-14T16:05:06.438Z,49.80
2022-12-14T16:07:39.362Z,52.03
2022-12-14T16:10:32.965Z,56.45
2022-12-14T16:13:33.469Z,56.85
2022-12-14T16:16:11.736Z,56.92
2022-12-14T16:18:50.785Z,58.47
2022-12-14T16:21:35.292Z,56.67
2022-12-14T16:24:24.228Z,55.97
2022-12-14T16:27:00.723Z,56.05
2022-12-14T16:29:33.665Z,50.13
2022-12-14T16:32:07.109Z,56.38
2022-12-14T16:34:34.523Z,50.47
2022-12-14T16:37:34.740Z,53.80
2022-12-14T16:39:52.476Z,54.50
2022-12-14T16:42:25.842Z,54.83
2022-12-14T16:44:54.404Z,49.83
2022-12-14T16:47:21.530Z,51.88
2022-12-14T16:49:51.959Z,54.90
2022-12-14T16:52:35.506Z,54.05
2022-12-14T16:55:18.604Z,51.45
2022-12-14T16:57:48.626Z,49.33
2022-12-14T17:00:36.170Z,51.90
2022-12-14T17:03:09.124Z,50.92
2022-12-14T17:05:40.369Z,50.53
2022-12-14T17:08:08.626Z,45.25
2022-12-14T17:10:37.408Z,51.90
2022-12-14T17:13:04.521Z,57.83
2022-12-14T17:15:34.449Z,48.45
2022-12-14T17:18:04.713Z,52.63
2022-12-14T17:20:39.566Z,48.53
2022-12-14T17:23:10.299Z,49.42
2022-12-14T17:25:37.353Z,54.22
2022-12-14T17:28:21.707Z,53.85
2022-12-14T17:30:50.521Z,53.53
2022-12-14T17:33:17.875Z,53.50
2022-12-14T17:35:44.916Z,53.90
2022-12-14T17:38:16.516Z,60.47
2022-12-14T17:40:45.628Z,55.15
2022-12-14T17:43:21.005Z,52.55
2022-12-14T17:45:48.332Z,54.00
2022-12-14T17:48:17.436Z,54.38
2022-12-14T17:50:48.411Z,57.03
2022-12-14T17:53:26.416Z,57.83
2022-12-14T17:55:53.532Z,54.95
2022-12-14T17:58:20.472Z,61.33
2022-12-14T18:01:03.656Z,62.08
2022-12-14T18:03:36.521Z,63.78
2022-12-14T18:06:04.726Z,66.60
2022-12-14T18:08:31.903Z,65.85
2022-12-14T18:11:02.986Z,68.90
2022-12-14T18:13:33.141Z,65.35
2022-12-14T18:16:00.995Z,73.22
2022-12-14T18:18:29.394Z,63.97
2022-12-14T18:21:02.684Z,71.15
2022-12-14T18:23:31.909Z,70.10
2022-12-14T18:26:00.663Z,76.85
2022-12-14T18:28:27.643Z,72.68
2022-12-14T18:31:01.745Z,70.18
2022-12-14T18:33:29.670Z,67.93
2022-12-14T18:35:57.541Z,74.88
2022-12-14T18:38:25.863Z,79.28
2022-12-14T18:40:56.227Z,71.00
2022-12-14T18:43:28.484Z,73.85
2022-12-14T18:45:56.716Z,74.72
2022-12-14T18:48:25.194Z,75.97
2022-12-14T18:50:54.604Z,78.25
2022-12-14T18:53:24.413Z,73.95
2022-12-14T18:55:52.612Z,82.97
2022-12-14T18:58:24.425Z,75.18
2022-12-14T19:00:55.211Z,78.20
2022-12-14T19:03:24.182Z,73.47
2022-12-14T19:05:51.655Z,78.50
2022-12-14T19:08:19.683Z,75.53
2022-12-14T19:10:48.577Z,86.75
2022-12-14T19:13:25.733Z,82.10
2022-12-14T19:15:54.200Z,73.97
2022-12-14T19:18:21.614Z,83.35
2022-12-14T19:20:49.463Z,79.05
2022-12-14T19:23:19.865Z,80.40
2022-12-14T19:25:47.536Z,85.32
2022-12-14T19:28:31.283Z,81.05
2022-12-14T19:31:00.426Z,80.03
2022-12-14T19:33:28.625Z,81.63
2022-12-14T19:35:56.206Z,74.93
2022-12-14T19:38:23.165Z,79.20
2022-12-14T19:41:05.105Z,79.30
2022-12-14T19:43:32.727Z,78.70
2022-12-14T19:46:00.226Z,78.45
2022-12-14T19:48:27.247Z,81.18
2022-12-14T19:50:54.293Z,78.65
2022-12-14T19:53:23.703Z,84.15
2022-12-14T19:55:53.997Z,90.40
2022-12-14T19:58:25.499Z,75.57
2022-12-14T20:00:52.766Z,74.68
2022-12-14T20:03:20.047Z,78.65
2022-12-14T20:05:59.318Z,82.43
2022-12-14T20:08:29.398Z,81.47
2022-12-14T20:10:57.511Z,78.70
2022-12-14T20:13:26.661Z,77.35
2022-12-14T20:15:59.660Z,73.18
2022-12-14T20:18:28.430Z,93.00
2022-12-14T20:21:08.072Z,78.60
2022-12-14T20:23:37.317Z,80.43
2022-12-14T20:26:12.963Z,78.75
2022-12-14T20:28:40.869Z,83.20
2022-12-14T20:31:10.172Z,83.32
2022-12-14T20:33:38.389Z,81.65
2022-12-14T20:36:06.573Z,85.22
2022-12-14T20:38:34.065Z,86.97
2022-12-14T20:41:10.592Z,84.90
2022-12-14T20:43:40.502Z,89.28
2022-12-14T20:46:30.772Z,91.10
2022-12-14T20:49:01.446Z,87.80
2022-12-14T20:51:30.495Z,92.68
2022-12-14T20:53:57.943Z,94.82
2022-12-14T20:56:25.457Z,93.13
2022-12-14T20:58:52.723Z,91.10
2022-12-14T21:01:21.594Z,91.40
2022-12-14T21:03:50.252Z,87.63
2022-12-14T21:06:22.605Z,91.97
2022-12-14T21:09:04.994Z,88.80
2022-12-14T21:12:02.400Z,85.47
2022-12-14T21:14:36.250Z,79.82
2022-12-14T21:17:04.021Z,82.72
2022-12-14T21:19:32.919Z,82.28
2022-12-14T21:21:59.929Z,83.10
2022-12-14T21:27:23.783Z,77.68
2022-12-14T21:29:52.288Z,80.13
2022-12-14T21:32:20.756Z,88.68
2022-12-14T21:34:48.416Z,86.68
2022-12-14T21:37:15.983Z,90.47
2022-12-14T21:39:47.590Z,85.25
2022-12-14T21:42:20.964Z,91.57
2022-12-14T21:44:50.739Z,80.95
2022-12-14T21:47:29.451Z,85.85
2022-12-14T21:49:57.313Z,85.72
2022-12-14T21:52:27.093Z,91.13
2022-12-14T21:54:54.490Z,90.85
2022-12-14T21:57:49.484Z,87.55
2022-12-14T22:00:19.167Z,88.05
2022-12-14T22:02:46.333Z,86.65
2022-12-14T22:05:13.401Z,84.32
2022-12-14T22:07:40.520Z,88.28
2022-12-14T22:10:07.825Z,87.55
2022-12-14T22:12:34.894Z,98.05
2022-12-14T22:15:02.044Z,96.82
2022-12-14T22:17:28.949Z,97.75
2022-12-14T22:19:56.169Z,102.35
2022-12-14T22:22:23.361Z,97.60
2022-12-14T22:24:51.231Z,101.95
2022-12-14T22:27:19.916Z,93.00
2022-12-14T22:29:47.418Z,97.00
2022-12-14T22:32:15.999Z,97.10
2022-12-14T22:34:43.275Z,98.40
2022-12-14T22:37:13.557Z,95.13
2022-12-14T22:39:40.713Z,92.78
2022-12-14T22:42:07.677Z,95.93
2022-12-14T22:44:34.837Z,94.72
2022-12-14T22:47:02.247Z,98.05
2022-12-14T22:49:29.262Z,93.32
2022-12-14T22:51:56.494Z,105.20
2022-12-14T22:54:27.716Z,100.05
2022-12-14T22:57:05.133Z,91.43
2022-12-14T22:59:45.174Z,95.07
2022-12-14T23:02:12.840Z,100.20
2022-12-14T23:04:40.168Z,95.10
2022-12-14T23:07:07.295Z,98.35
2022-12-14T23:09:53.152Z,101.03
2022-12-14T23:12:38.881Z,94.57
2022-12-14T23:15:24.765Z,91.43
2022-12-14T23:21:18.257Z,86.53
2022-12-14T23:24:04.767Z,85.57
2022-12-14T23:26:51.647Z,95.53
2022-12-14T23:29:37.581Z,89.07
2022-12-14T23:32:23.548Z,88.45
2022-12-14T23:35:09.095Z,95.88
2022-12-14T23:37:55.026Z,88.53
2022-12-14T23:40:40.377Z,93.38
2022-12-14T23:43:36.609Z,93.03
2022-12-14T23:46:24.459Z,90.60
2022-12-14T23:49:15.350Z,92.82
2022-12-14T23:52:02.011Z,87.10
2022-12-14T23:54:47.940Z,97.60
2022-12-14T23:57:34.069Z,92.95
